sensor_id;sensor_type;location;lat;lon;timestamp;P1;durP1;ratioP1;P2;durP2;ratioP2
49039;SDS011;36811;49.732;13.402;2022-09-30T00:01:37;18.40;;;10.57;;
49039;SDS011;36811;49.732;13.402;2022-09-30T00:04:06;16.27;;;11.15;;
49039;SDS011;36811;49.732;13.402;2022-09-30T00:06:40;18.98;;;11.57;;
49039;SDS011;36811;49.732;13.402;2022-09-30T00:09:06;19.17;;;11.10;;
49039;SDS011;36811;49.732;13.402;2022-09-30T00:11:32;18.38;;;11.73;;
49039;SDS011;36811;49.732;13.402;2022-09-30T00:13:59;22.85;;;12.00;;
49039;SDS011;36811;49.732;13.402;2022-09-30T00:16:28;20.83;;;12.30;;
49039;SDS011;36811;49.732;13.402;2022-09-30T00:18:58;19.05;;;11.45;;
49039;SDS011;36811;49.732;13.402;2022-09-30T00:21:25;17.48;;;10.40;;
49039;SDS011;36811;49.732;13.402;2022-09-30T00:23:56;22.17;;;11.90;;
49039;SDS011;36811;49.732;13.402;2022-09-30T00:26:22;21.27;;;11.05;;
49039;SDS011;36811;49.732;13.402;2022-09-30T00:28:50;15.43;;;10.70;;
49039;SDS011;36811;49.732;13.402;2022-09-30T00:31:20;16.77;;;10.80;;
49039;SDS011;36811;49.732;13.402;2022-09-30T00:33:47;27.05;;;11.82;;
49039;SDS011;36811;49.732;13.402;2022-09-30T00:36:44;19.08;;;11.18;;
49039;SDS011;36811;49.732;13.402;2022-09-30T00:39:17;22.77;;;10.57;;
49039;SDS011;36811;49.732;13.402;2022-09-30T00:41:46;20.27;;;12.33;;
49039;SDS011;36811;49.732;13.402;2022-09-30T00:50:32;18.15;;;10.70;;
49039;SDS011;36811;49.732;13.402;2022-09-30T00:55:33;21.00;;;13.63;;
49039;SDS011;36811;49.732;13.402;2022-09-30T00:58:06;20.10;;;13.52;;
49039;SDS011;36811;49.732;13.402;2022-09-30T01:00:34;24.95;;;16.27;;
49039;SDS011;36811;49.732;13.402;2022-09-30T01:03:01;28.20;;;18.58;;
49039;SDS011;36811;49.732;13.402;2022-09-30T01:05:28;20.08;;;14.45;;
49039;SDS011;36811;49.732;13.402;2022-09-30T01:07:57;30.13;;;16.75;;
49039;SDS011;36811;49.732;13.402;2022-09-30T01:10:26;22.27;;;14.13;;
49039;SDS011;36811;49.732;13.402;2022-09-30T01:12:52;20.50;;;12.18;;
49039;SDS011;36811;49.732;13.402;2022-09-30T01:15:18;20.27;;;11.82;;
49039;SDS011;36811;49.732;13.402;2022-09-30T01:17:53;21.02;;;12.50;;
49039;SDS011;36811;49.732;13.402;2022-09-30T01:24:22;25.88;;;14.18;;
49039;SDS011;36811;49.732;13.402;2022-09-30T01:32:05;19.63;;;12.13;;
49039;SDS011;36811;49.732;13.402;2022-09-30T01:46:20;17.70;;;10.82;;
49039;SDS011;36811;49.732;13.402;2022-09-30T01:51:34;15.30;;;9.75;;
49039;SDS011;36811;49.732;13.402;2022-09-30T01:54:07;15.82;;;9.57;;
49039;SDS011;36811;49.732;13.402;2022-09-30T01:56:58;14.18;;;10.30;;
49039;SDS011;36811;49.732;13.402;2022-09-30T01:59:37;13.77;;;9.40;;
49039;SDS011;36811;49.732;13.402;2022-09-30T02:02:20;16.05;;;9.07;;
49039;SDS011;36811;49.732;13.402;2022-09-30T02:04:54;14.95;;;9.82;;
49039;SDS011;36811;49.732;13.402;2022-09-30T02:07:29;14.80;;;9.18;;
49039;SDS011;36811;49.732;13.402;2022-09-30T02:10:10;19.13;;;12.00;;
49039;SDS011;36811;49.732;13.402;2022-09-30T02:13:27;21.55;;;12.93;;
49039;SDS011;36811;49.732;13.402;2022-09-30T02:15:42;25.55;;;14.35;;
49039;SDS011;36811;49.732;13.402;2022-09-30T02:18:14;24.70;;;15.25;;
49039;SDS011;36811;49.732;13.402;2022-09-30T02:20:46;23.92;;;14.70;;
49039;SDS011;36811;49.732;13.402;2022-09-30T02:23:21;20.50;;;13.88;;
49039;SDS011;36811;49.732;13.402;2022-09-30T02:25:58;24.08;;;15.93;;
49039;SDS011;36811;49.732;13.402;2022-09-30T02:28:49;28.10;;;18.15;;
49039;SDS011;36811;49.732;13.402;2022-09-30T02:31:19;24.42;;;15.40;;
49039;SDS011;36811;49.732;13.402;2022-09-30T02:33:49;24.63;;;14.85;;
49039;SDS011;36811;49.732;13.402;2022-09-30T02:38:53;26.10;;;19.33;;
49039;SDS011;36811;49.732;13.402;2022-09-30T02:41:34;32.13;;;22.88;;
49039;SDS011;36811;49.732;13.402;2022-09-30T02:44:09;29.27;;;20.15;;
49039;SDS011;36811;49.732;13.402;2022-09-30T02:46:43;26.30;;;18.35;;
49039;SDS011;36811;49.732;13.402;2022-09-30T02:49:43;29.02;;;20.08;;
49039;SDS011;36811;49.732;13.402;2022-09-30T02:57:54;19.15;;;12.80;;
49039;SDS011;36811;49.732;13.402;2022-09-30T03:00:13;21.15;;;11.80;;
49039;SDS011;36811;49.732;13.402;2022-09-30T03:02:40;20.40;;;14.05;;
49039;SDS011;36811;49.732;13.402;2022-09-30T03:05:07;19.05;;;14.32;;
49039;SDS011;36811;49.732;13.402;2022-09-30T03:07:34;19.10;;;13.45;;
49039;SDS011;36811;49.732;13.402;2022-09-30T03:10:00;16.85;;;12.38;;
49039;SDS011;36811;49.732;13.402;2022-09-30T03:24:03;27.55;;;18.85;;
49039;SDS011;36811;49.732;13.402;2022-09-30T03:29:48;25.77;;;15.77;;
49039;SDS011;36811;49.732;13.402;2022-09-30T03:40:50;23.17;;;14.35;;
49039;SDS011;36811;49.732;13.402;2022-09-30T03:43:24;22.60;;;14.57;;
49039;SDS011;36811;49.732;13.402;2022-09-30T03:45:56;21.05;;;13.57;;
49039;SDS011;36811;49.732;13.402;2022-09-30T03:48:31;24.73;;;14.48;;
49039;SDS011;36811;49.732;13.402;2022-09-30T03:50:59;24.55;;;15.45;;
49039;SDS011;36811;49.732;13.402;2022-09-30T03:53:26;24.23;;;15.98;;
49039;SDS011;36811;49.732;13.402;2022-09-30T03:55:52;25.55;;;16.48;;
49039;SDS011;36811;49.732;13.402;2022-09-30T03:58:19;24.80;;;16.33;;
49039;SDS011;36811;49.732;13.402;2022-09-30T04:00:50;24.90;;;16.02;;
49039;SDS011;36811;49.732;13.402;2022-09-30T04:03:19;23.90;;;13.95;;
49039;SDS011;36811;49.732;13.402;2022-09-30T04:05:46;29.42;;;17.85;;
49039;SDS011;36811;49.732;13.402;2022-09-30T04:08:12;23.85;;;16.23;;
49039;SDS011;36811;49.732;13.402;2022-09-30T04:10:39;23.48;;;14.90;;
49039;SDS011;36811;49.732;13.402;2022-09-30T04:13:06;20.95;;;15.27;;
49039;SDS011;36811;49.732;13.402;2022-09-30T04:15:33;24.33;;;15.75;;
49039;SDS011;36811;49.732;13.402;2022-09-30T04:18:00;21.25;;;14.88;;
49039;SDS011;36811;49.732;13.402;2022-09-30T04:20:28;24.23;;;14.85;;
49039;SDS011;36811;49.732;13.402;2022-09-30T04:22:58;18.88;;;13.88;;
49039;SDS011;36811;49.732;13.402;2022-09-30T04:25:25;20.38;;;12.70;;
49039;SDS011;36811;49.732;13.402;2022-09-30T04:27:52;26.02;;;16.38;;
49039;SDS011;36811;49.732;13.402;2022-09-30T04:30:17;19.75;;;14.02;;
49039;SDS011;36811;49.732;13.402;2022-09-30T04:32:43;20.98;;;14.43;;
49039;SDS011;36811;49.732;13.402;2022-09-30T04:35:12;19.88;;;14.73;;
49039;SDS011;36811;49.732;13.402;2022-09-30T04:37:45;28.38;;;17.35;;
49039;SDS011;36811;49.732;13.402;2022-09-30T04:40:12;25.33;;;16.38;;
49039;SDS011;36811;49.732;13.402;2022-09-30T04:42:40;30.95;;;19.77;;
49039;SDS011;36811;49.732;13.402;2022-09-30T04:45:08;25.60;;;15.80;;
49039;SDS011;36811;49.732;13.402;2022-09-30T04:47:35;20.83;;;14.27;;
49039;SDS011;36811;49.732;13.402;2022-09-30T04:50:00;23.23;;;15.70;;
49039;SDS011;36811;49.732;13.402;2022-09-30T04:52:26;27.73;;;17.30;;
49039;SDS011;36811;49.732;13.402;2022-09-30T04:54:52;26.88;;;17.05;;
49039;SDS011;36811;49.732;13.402;2022-09-30T04:57:18;21.80;;;14.70;;
49039;SDS011;36811;49.732;13.402;2022-09-30T04:59:44;20.55;;;12.73;;
49039;SDS011;36811;49.732;13.402;2022-09-30T05:02:09;18.40;;;12.73;;
49039;SDS011;36811;49.732;13.402;2022-09-30T05:04:37;18.02;;;13.77;;
49039;SDS011;36811;49.732;13.402;2022-09-30T05:07:03;18.13;;;13.45;;
49039;SDS011;36811;49.732;13.402;2022-09-30T05:09:33;19.65;;;12.63;;
49039;SDS011;36811;49.732;13.402;2022-09-30T05:12:00;19.30;;;12.00;;
49039;SDS011;36811;49.732;13.402;2022-09-30T05:14:28;18.88;;;14.00;;
49039;SDS011;36811;49.732;13.402;2022-09-30T05:16:54;23.63;;;15.52;;
49039;SDS011;36811;49.732;13.402;2022-09-30T05:19:20;22.00;;;14.50;;
49039;SDS011;36811;49.732;13.402;2022-09-30T05:21:46;33.72;;;22.33;;
49039;SDS011;36811;49.732;13.402;2022-09-30T05:24:11;22.55;;;15.98;;
49039;SDS011;36811;49.732;13.402;2022-09-30T05:26:38;19.70;;;12.18;;
49039;SDS011;36811;49.732;13.402;2022-09-30T05:29:05;28.23;;;15.23;;
49039;SDS011;36811;49.732;13.402;2022-09-30T05:31:32;23.02;;;14.68;;
49039;SDS011;36811;49.732;13.402;2022-09-30T05:33:58;26.35;;;17.42;;
49039;SDS011;36811;49.732;13.402;2022-09-30T05:36:23;21.77;;;14.68;;
49039;SDS011;36811;49.732;13.402;2022-09-30T05:38:49;24.45;;;15.57;;
49039;SDS011;36811;49.732;13.402;2022-09-30T05:41:16;24.35;;;15.88;;
49039;SDS011;36811;49.732;13.402;2022-09-30T05:43:45;27.50;;;17.00;;
49039;SDS011;36811;49.732;13.402;2022-09-30T05:46:12;28.23;;;17.70;;
49039;SDS011;36811;49.732;13.402;2022-09-30T05:48:39;26.50;;;15.73;;
49039;SDS011;36811;49.732;13.402;2022-09-30T05:51:05;20.05;;;13.70;;
49039;SDS011;36811;49.732;13.402;2022-09-30T05:53:32;21.67;;;13.23;;
49039;SDS011;36811;49.732;13.402;2022-09-30T05:56:03;22.65;;;15.07;;
49039;SDS011;36811;49.732;13.402;2022-09-30T05:58:30;19.73;;;14.18;;
49039;SDS011;36811;49.732;13.402;2022-09-30T06:00:56;21.63;;;14.75;;
49039;SDS011;36811;49.732;13.402;2022-09-30T06:03:30;20.25;;;14.52;;
49039;SDS011;36811;49.732;13.402;2022-09-30T06:05:57;19.20;;;14.02;;
49039;SDS011;36811;49.732;13.402;2022-09-30T06:08:23;17.50;;;13.90;;
49039;SDS011;36811;49.732;13.402;2022-09-30T06:10:49;16.33;;;13.45;;
49039;SDS011;36811;49.732;13.402;2022-09-30T06:13:15;17.92;;;12.98;;
49039;SDS011;36811;49.732;13.402;2022-09-30T06:15:42;17.98;;;13.75;;
49039;SDS011;36811;49.732;13.402;2022-09-30T06:18:08;19.63;;;14.13;;
49039;SDS011;36811;49.732;13.402;2022-09-30T06:20:37;19.27;;;13.95;;
49039;SDS011;36811;49.732;13.402;2022-09-30T06:23:03;18.83;;;13.32;;
49039;SDS011;36811;49.732;13.402;2022-09-30T06:25:29;17.98;;;12.25;;
49039;SDS011;36811;49.732;13.402;2022-09-30T06:27:56;15.65;;;12.35;;
49039;SDS011;36811;49.732;13.402;2022-09-30T06:30:23;18.95;;;12.23;;
49039;SDS011;36811;49.732;13.402;2022-09-30T06:32:49;30.70;;;13.00;;
49039;SDS011;36811;49.732;13.402;2022-09-30T06:35:15;25.13;;;13.75;;
49039;SDS011;36811;49.732;13.402;2022-09-30T06:37:43;16.85;;;12.20;;
49039;SDS011;36811;49.732;13.402;2022-09-30T06:40:09;17.35;;;12.18;;
49039;SDS011;36811;49.732;13.402;2022-09-30T06:42:35;15.85;;;11.60;;
49039;SDS011;36811;49.732;13.402;2022-09-30T06:45:01;16.88;;;11.85;;
49039;SDS011;36811;49.732;13.402;2022-09-30T06:47:27;16.00;;;11.77;;
49039;SDS011;36811;49.732;13.402;2022-09-30T06:49:53;17.92;;;11.60;;
49039;SDS011;36811;49.732;13.402;2022-09-30T06:52:23;15.38;;;11.25;;
49039;SDS011;36811;49.732;13.402;2022-09-30T06:54:49;15.18;;;10.07;;
49039;SDS011;36811;49.732;13.402;2022-09-30T06:57:16;22.30;;;16.73;;
49039;SDS011;36811;49.732;13.402;2022-09-30T06:59:47;20.02;;;12.13;;
49039;SDS011;36811;49.732;13.402;2022-09-30T07:02:13;15.50;;;12.68;;
49039;SDS011;36811;49.732;13.402;2022-09-30T07:04:39;14.98;;;10.65;;
49039;SDS011;36811;49.732;13.402;2022-09-30T07:07:04;17.83;;;12.60;;
49039;SDS011;36811;49.732;13.402;2022-09-30T07:09:31;17.10;;;12.85;;
49039;SDS011;36811;49.732;13.402;2022-09-30T07:11:57;20.35;;;12.85;;
49039;SDS011;36811;49.732;13.402;2022-09-30T07:14:22;21.58;;;12.25;;
49039;SDS011;36811;49.732;13.402;2022-09-30T07:16:48;19.50;;;12.63;;
49039;SDS011;36811;49.732;13.402;2022-09-30T07:19:17;22.38;;;13.88;;
49039;SDS011;36811;49.732;13.402;2022-09-30T07:21:47;21.33;;;13.20;;
49039;SDS011;36811;49.732;13.402;2022-09-30T07:24:14;18.35;;;11.70;;
49039;SDS011;36811;49.732;13.402;2022-09-30T07:26:41;23.98;;;11.60;;
49039;SDS011;36811;49.732;13.402;2022-09-30T07:29:11;22.15;;;10.93;;
49039;SDS011;36811;49.732;13.402;2022-09-30T07:31:38;17.02;;;11.02;;
49039;SDS011;36811;49.732;13.402;2022-09-30T07:34:05;19.70;;;9.95;;
49039;SDS011;36811;49.732;13.402;2022-09-30T07:36:32;14.48;;;10.75;;
49039;SDS011;36811;49.732;13.402;2022-09-30T07:39:03;15.32;;;9.90;;
49039;SDS011;36811;49.732;13.402;2022-09-30T07:41:33;14.65;;;9.60;;
49039;SDS011;36811;49.732;13.402;2022-09-30T07:44:02;14.30;;;10.27;;
49039;SDS011;36811;49.732;13.402;2022-09-30T07:46:30;14.55;;;9.23;;
49039;SDS011;36811;49.732;13.402;2022-09-30T07:48:58;22.77;;;13.07;;
49039;SDS011;36811;49.732;13.402;2022-09-30T07:53:57;24.88;;;13.07;;
49039;SDS011;36811;49.732;13.402;2022-09-30T07:56:25;20.55;;;13.25;;
49039;SDS011;36811;49.732;13.402;2022-09-30T07:58:56;16.48;;;11.35;;
49039;SDS011;36811;49.732;13.402;2022-09-30T08:01:25;17.63;;;12.80;;
49039;SDS011;36811;49.732;13.402;2022-09-30T08:03:54;20.27;;;13.60;;
49039;SDS011;36811;49.732;13.402;2022-09-30T08:06:21;19.13;;;11.77;;
49039;SDS011;36811;49.732;13.402;2022-09-30T08:08:49;19.30;;;11.52;;
49039;SDS011;36811;49.732;13.402;2022-09-30T08:11:17;22.10;;;11.10;;
49039;SDS011;36811;49.732;13.402;2022-09-30T08:13:43;14.10;;;10.18;;
49039;SDS011;36811;49.732;13.402;2022-09-30T08:16:09;19.05;;;9.90;;
49039;SDS011;36811;49.732;13.402;2022-09-30T08:18:34;21.55;;;10.77;;
49039;SDS011;36811;49.732;13.402;2022-09-30T08:21:01;15.68;;;8.75;;
49039;SDS011;36811;49.732;13.402;2022-09-30T08:23:29;13.43;;;9.23;;
49039;SDS011;36811;49.732;13.402;2022-09-30T08:26:05;13.00;;;10.00;;
49039;SDS011;36811;49.732;13.402;2022-09-30T08:28:36;16.10;;;8.75;;
49039;SDS011;36811;49.732;13.402;2022-09-30T08:31:06;17.92;;;9.18;;
49039;SDS011;36811;49.732;13.402;2022-09-30T08:33:32;12.25;;;7.68;;
49039;SDS011;36811;49.732;13.402;2022-09-30T08:36:10;10.80;;;7.07;;
49039;SDS011;36811;49.732;13.402;2022-09-30T08:38:37;10.73;;;7.43;;
49039;SDS011;36811;49.732;13.402;2022-09-30T08:41:10;13.07;;;7.57;;
49039;SDS011;36811;49.732;13.402;2022-09-30T08:51:48;11.20;;;7.20;;
49039;SDS011;36811;49.732;13.402;2022-09-30T08:54:17;16.35;;;8.52;;
49039;SDS011;36811;49.732;13.402;2022-09-30T08:56:46;14.77;;;8.23;;
49039;SDS011;36811;49.732;13.402;2022-09-30T08:59:27;18.25;;;8.05;;
49039;SDS011;36811;49.732;13.402;2022-09-30T09:01:58;12.25;;;8.15;;
49039;SDS011;36811;49.732;13.402;2022-09-30T09:04:44;11.65;;;7.47;;
49039;SDS011;36811;49.732;13.402;2022-09-30T09:10:11;13.65;;;8.63;;
49039;SDS011;36811;49.732;13.402;2022-09-30T09:12:44;12.90;;;7.87;;
49039;SDS011;36811;49.732;13.402;2022-09-30T09:15:30;12.57;;;7.18;;
49039;SDS011;36811;49.732;13.402;2022-09-30T09:18:07;12.88;;;7.95;;
49039;SDS011;36811;49.732;13.402;2022-09-30T09:20:47;12.63;;;8.20;;
49039;SDS011;36811;49.732;13.402;2022-09-30T09:23:24;15.93;;;8.70;;
49039;SDS011;36811;49.732;13.402;2022-09-30T09:25:53;11.60;;;7.97;;
49039;SDS011;36811;49.732;13.402;2022-09-30T09:31:02;19.52;;;8.85;;
49039;SDS011;36811;49.732;13.402;2022-09-30T09:33:31;15.55;;;8.98;;
49039;SDS011;36811;49.732;13.402;2022-09-30T09:36:47;13.02;;;8.05;;
49039;SDS011;36811;49.732;13.402;2022-09-30T09:44:20;14.73;;;7.90;;
49039;SDS011;36811;49.732;13.402;2022-09-30T09:47:04;12.73;;;7.07;;
49039;SDS011;36811;49.732;13.402;2022-09-30T09:50:00;14.93;;;8.02;;
49039;SDS011;36811;49.732;13.402;2022-09-30T09:55:20;13.75;;;8.43;;
49039;SDS011;36811;49.732;13.402;2022-09-30T09:57:47;14.77;;;8.95;;
49039;SDS011;36811;49.732;13.402;2022-09-30T10:00:28;11.20;;;7.82;;
49039;SDS011;36811;49.732;13.402;2022-09-30T10:03:13;12.00;;;8.38;;
49039;SDS011;36811;49.732;13.402;2022-09-30T10:08:51;11.45;;;7.20;;
49039;SDS011;36811;49.732;13.402;2022-09-30T10:13:45;12.20;;;6.30;;
49039;SDS011;36811;49.732;13.402;2022-09-30T10:16:29;11.32;;;6.93;;
49039;SDS011;36811;49.732;13.402;2022-09-30T10:19:00;12.68;;;6.72;;
49039;SDS011;36811;49.732;13.402;2022-09-30T10:21:28;10.95;;;6.88;;
49039;SDS011;36811;49.732;13.402;2022-09-30T10:23:55;11.88;;;7.50;;
49039;SDS011;36811;49.732;13.402;2022-09-30T10:26:25;14.27;;;6.28;;
49039;SDS011;36811;49.732;13.402;2022-09-30T10:28:59;8.60;;;6.65;;
49039;SDS011;36811;49.732;13.402;2022-09-30T10:31:29;12.18;;;6.50;;
49039;SDS011;36811;49.732;13.402;2022-09-30T10:34:19;10.68;;;7.50;;
49039;SDS011;36811;49.732;13.402;2022-09-30T10:36:48;10.25;;;7.43;;
49039;SDS011;36811;49.732;13.402;2022-09-30T10:41:49;12.57;;;6.80;;
49039;SDS011;36811;49.732;13.402;2022-09-30T10:44:25;10.27;;;6.20;;
49039;SDS011;36811;49.732;13.402;2022-09-30T10:46:57;11.02;;;5.78;;
49039;SDS011;36811;49.732;13.402;2022-09-30T10:49:36;9.57;;;5.88;;
49039;SDS011;36811;49.732;13.402;2022-09-30T10:52:21;8.68;;;5.50;;
49039;SDS011;36811;49.732;13.402;2022-09-30T10:57:26;14.43;;;6.50;;
49039;SDS011;36811;49.732;13.402;2022-09-30T11:00:04;11.70;;;7.27;;
49039;SDS011;36811;49.732;13.402;2022-09-30T11:05:31;11.93;;;6.82;;
49039;SDS011;36811;49.732;13.402;2022-09-30T11:10:59;12.13;;;6.25;;
49039;SDS011;36811;49.732;13.402;2022-09-30T11:16:40;12.43;;;6.03;;
49039;SDS011;36811;49.732;13.402;2022-09-30T11:19:20;9.20;;;6.05;;
49039;SDS011;36811;49.732;13.402;2022-09-30T11:21:58;13.65;;;6.85;;
49039;SDS011;36811;49.732;13.402;2022-09-30T11:24:33;10.20;;;6.30;;
49039;SDS011;36811;49.732;13.402;2022-09-30T11:38:16;16.58;;;7.40;;
49039;SDS011;36811;49.732;13.402;2022-09-30T11:40:55;11.82;;;6.78;;
49039;SDS011;36811;49.732;13.402;2022-09-30T11:59:47;12.63;;;6.55;;
49039;SDS011;36811;49.732;13.402;2022-09-30T12:02:39;9.70;;;6.93;;
49039;SDS011;36811;49.732;13.402;2022-09-30T12:05:11;10.50;;;6.20;;
49039;SDS011;36811;49.732;13.402;2022-09-30T12:07:47;9.05;;;6.50;;
49039;SDS011;36811;49.732;13.402;2022-09-30T12:10:28;10.23;;;6.78;;
49039;SDS011;36811;49.732;13.402;2022-09-30T12:13:05;10.43;;;6.60;;
49039;SDS011;36811;49.732;13.402;2022-09-30T12:15:39;9.18;;;5.78;;
49039;SDS011;36811;49.732;13.402;2022-09-30T12:18:18;10.90;;;5.53;;
49039;SDS011;36811;49.732;13.402;2022-09-30T12:20:50;10.35;;;5.53;;
49039;SDS011;36811;49.732;13.402;2022-09-30T12:23:21;8.05;;;5.70;;
49039;SDS011;36811;49.732;13.402;2022-09-30T12:25:55;10.57;;;5.70;;
49039;SDS011;36811;49.732;13.402;2022-09-30T12:31:37;8.82;;;5.03;;
49039;SDS011;36811;49.732;13.402;2022-09-30T12:37:08;12.55;;;5.60;;
49039;SDS011;36811;49.732;13.402;2022-09-30T12:48:12;7.55;;;4.55;;
49039;SDS011;36811;49.732;13.402;2022-09-30T12:50:49;7.65;;;4.70;;
49039;SDS011;36811;49.732;13.402;2022-09-30T12:53:31;8.93;;;4.75;;
49039;SDS011;36811;49.732;13.402;2022-09-30T12:56:12;6.97;;;4.45;;
49039;SDS011;36811;49.732;13.402;2022-09-30T12:58:43;9.70;;;4.35;;
49039;SDS011;36811;49.732;13.402;2022-09-30T13:01:14;7.95;;;4.75;;
49039;SDS011;36811;49.732;13.402;2022-09-30T13:07:11;7.97;;;3.60;;
49039;SDS011;36811;49.732;13.402;2022-09-30T13:09:35;6.57;;;3.35;;
49039;SDS011;36811;49.732;13.402;2022-09-30T13:12:39;8.48;;;3.88;;
49039;SDS011;36811;49.732;13.402;2022-09-30T13:16:07;7.13;;;3.90;;
49039;SDS011;36811;49.732;13.402;2022-09-30T13:29:45;7.53;;;4.00;;
49039;SDS011;36811;49.732;13.402;2022-09-30T13:34:11;8.52;;;4.07;;
49039;SDS011;36811;49.732;13.402;2022-09-30T13:39:28;6.45;;;4.65;;
49039;SDS011;36811;49.732;13.402;2022-09-30T13:44:36;11.43;;;4.70;;
49039;SDS011;36811;49.732;13.402;2022-09-30T13:47:25;6.38;;;3.85;;
49039;SDS011;36811;49.732;13.402;2022-09-30T13:49:56;5.40;;;4.13;;
49039;SDS011;36811;49.732;13.402;2022-09-30T13:52:50;8.27;;;4.32;;
49039;SDS011;36811;49.732;13.402;2022-09-30T13:55:24;11.93;;;4.25;;
49039;SDS011;36811;49.732;13.402;2022-09-30T14:00:58;6.72;;;4.00;;
49039;SDS011;36811;49.732;13.402;2022-09-30T14:03:37;8.02;;;4.20;;
49039;SDS011;36811;49.732;13.402;2022-09-30T14:23:26;9.25;;;4.50;;
49039;SDS011;36811;49.732;13.402;2022-09-30T14:28:47;7.50;;;4.60;;
49039;SDS011;36811;49.732;13.402;2022-09-30T14:31:22;7.97;;;4.28;;
49039;SDS011;36811;49.732;13.402;2022-09-30T14:33:49;7.78;;;3.80;;
49039;SDS011;36811;49.732;13.402;2022-09-30T14:36:17;9.95;;;4.15;;
49039;SDS011;36811;49.732;13.402;2022-09-30T14:38:47;4.50;;;3.20;;
49039;SDS011;36811;49.732;13.402;2022-09-30T14:41:18;5.68;;;3.30;;
49039;SDS011;36811;49.732;13.402;2022-09-30T14:43:47;9.60;;;3.92;;
49039;SDS011;36811;49.732;13.402;2022-09-30T14:46:36;4.68;;;3.40;;
49039;SDS011;36811;49.732;13.402;2022-09-30T14:49:07;7.97;;;3.20;;
49039;SDS011;36811;49.732;13.402;2022-09-30T14:51:41;10.13;;;3.50;;
49039;SDS011;36811;49.732;13.402;2022-09-30T14:54:18;8.38;;;3.72;;
49039;SDS011;36811;49.732;13.402;2022-09-30T14:56:51;5.75;;;3.25;;
49039;SDS011;36811;49.732;13.402;2022-09-30T14:59:29;6.00;;;3.13;;
49039;SDS011;36811;49.732;13.402;2022-09-30T15:01:59;5.93;;;3.08;;
49039;SDS011;36811;49.732;13.402;2022-09-30T15:04:37;8.18;;;3.53;;
49039;SDS011;36811;49.732;13.402;2022-09-30T15:07:08;8.00;;;3.45;;
49039;SDS011;36811;49.732;13.402;2022-09-30T15:09:36;5.70;;;3.15;;
49039;SDS011;36811;49.732;13.402;2022-09-30T15:12:04;5.63;;;3.38;;
49039;SDS011;36811;49.732;13.402;2022-09-30T15:14:49;8.73;;;3.60;;
49039;SDS011;36811;49.732;13.402;2022-09-30T15:17:26;9.02;;;3.70;;
49039;SDS011;36811;49.732;13.402;2022-09-30T15:20:00;12.43;;;5.22;;
49039;SDS011;36811;49.732;13.402;2022-09-30T15:22:26;6.68;;;3.60;;
49039;SDS011;36811;49.732;13.402;2022-09-30T15:24:53;6.35;;;3.42;;
49039;SDS011;36811;49.732;13.402;2022-09-30T15:27:22;7.22;;;3.92;;
49039;SDS011;36811;49.732;13.402;2022-09-30T15:32:21;6.35;;;3.53;;
49039;SDS011;36811;49.732;13.402;2022-09-30T15:34:50;10.35;;;3.30;;
49039;SDS011;36811;49.732;13.402;2022-09-30T15:37:23;7.00;;;3.53;;
49039;SDS011;36811;49.732;13.402;2022-09-30T15:39:57;6.25;;;3.85;;
49039;SDS011;36811;49.732;13.402;2022-09-30T15:42:57;10.45;;;4.13;;
49039;SDS011;36811;49.732;13.402;2022-09-30T15:45:28;11.32;;;4.43;;
49039;SDS011;36811;49.732;13.402;2022-09-30T15:48:00;6.88;;;4.25;;
49039;SDS011;36811;49.732;13.402;2022-09-30T15:53:17;6.25;;;3.65;;
49039;SDS011;36811;49.732;13.402;2022-09-30T15:55:56;5.85;;;3.85;;
49039;SDS011;36811;49.732;13.402;2022-09-30T16:01:16;5.90;;;3.55;;
49039;SDS011;36811;49.732;13.402;2022-09-30T16:06:23;5.07;;;3.70;;
49039;SDS011;36811;49.732;13.402;2022-09-30T16:08:54;6.22;;;4.32;;
49039;SDS011;36811;49.732;13.402;2022-09-30T16:11:33;11.32;;;5.00;;
49039;SDS011;36811;49.732;13.402;2022-09-30T16:14:04;7.95;;;4.40;;
49039;SDS011;36811;49.732;13.402;2022-09-30T16:16:34;10.65;;;5.13;;
49039;SDS011;36811;49.732;13.402;2022-09-30T16:19:03;9.50;;;4.57;;
49039;SDS011;36811;49.732;13.402;2022-09-30T16:21:43;10.93;;;4.65;;
49039;SDS011;36811;49.732;13.402;2022-09-30T16:26:47;8.40;;;4.97;;
49039;SDS011;36811;49.732;13.402;2022-09-30T16:29:16;6.90;;;4.50;;
49039;SDS011;36811;49.732;13.402;2022-09-30T16:31:43;11.98;;;5.53;;
49039;SDS011;36811;49.732;13.402;2022-09-30T16:34:21;9.25;;;4.93;;
49039;SDS011;36811;49.732;13.402;2022-09-30T16:36:49;7.18;;;4.82;;
49039;SDS011;36811;49.732;13.402;2022-09-30T16:39:18;12.35;;;6.28;;
49039;SDS011;36811;49.732;13.402;2022-09-30T16:41:44;8.27;;;5.68;;
49039;SDS011;36811;49.732;13.402;2022-09-30T16:44:11;9.15;;;5.57;;
49039;SDS011;36811;49.732;13.402;2022-09-30T16:46:37;10.15;;;6.07;;
49039;SDS011;36811;49.732;13.402;2022-09-30T16:49:16;13.75;;;5.90;;
49039;SDS011;36811;49.732;13.402;2022-09-30T16:51:43;9.15;;;6.43;;
49039;SDS011;36811;49.732;13.402;2022-09-30T16:54:09;14.95;;;6.07;;
49039;SDS011;36811;49.732;13.402;2022-09-30T16:56:36;9.73;;;6.07;;
49039;SDS011;36811;49.732;13.402;2022-09-30T16:59:02;10.38;;;5.45;;
49039;SDS011;36811;49.732;13.402;2022-09-30T17:01:28;7.28;;;5.60;;
49039;SDS011;36811;49.732;13.402;2022-09-30T17:03:55;11.07;;;6.13;;
49039;SDS011;36811;49.732;13.402;2022-09-30T17:06:29;8.88;;;5.47;;
49039;SDS011;36811;49.732;13.402;2022-09-30T17:08:56;11.75;;;6.53;;
49039;SDS011;36811;49.732;13.402;2022-09-30T17:11:25;12.05;;;7.55;;
49039;SDS011;36811;49.732;13.402;2022-09-30T17:13:55;14.82;;;8.05;;
49039;SDS011;36811;49.732;13.402;2022-09-30T17:16:22;15.25;;;8.20;;
49039;SDS011;36811;49.732;13.402;2022-09-30T17:18:49;16.45;;;8.95;;
49039;SDS011;36811;49.732;13.402;2022-09-30T17:21:16;17.30;;;8.18;;
49039;SDS011;36811;49.732;13.402;2022-09-30T17:23:46;15.18;;;7.68;;
49039;SDS011;36811;49.732;13.402;2022-09-30T17:26:12;18.77;;;10.35;;
49039;SDS011;36811;49.732;13.402;2022-09-30T17:28:38;14.15;;;8.52;;
49039;SDS011;36811;49.732;13.402;2022-09-30T17:31:04;17.55;;;9.23;;
49039;SDS011;36811;49.732;13.402;2022-09-30T17:33:32;12.75;;;6.95;;
49039;SDS011;36811;49.732;13.402;2022-09-30T17:36:01;16.35;;;8.45;;
49039;SDS011;36811;49.732;13.402;2022-09-30T17:38:32;13.55;;;8.32;;
49039;SDS011;36811;49.732;13.402;2022-09-30T17:40:58;15.18;;;8.43;;
49039;SDS011;36811;49.732;13.402;2022-09-30T17:43:43;18.70;;;8.63;;
49039;SDS011;36811;49.732;13.402;2022-09-30T17:46:12;13.23;;;8.40;;
49039;SDS011;36811;49.732;13.402;2022-09-30T17:48:43;16.95;;;9.35;;
49039;SDS011;36811;49.732;13.402;2022-09-30T17:51:11;11.95;;;7.95;;
49039;SDS011;36811;49.732;13.402;2022-09-30T17:53:37;17.45;;;8.27;;
49039;SDS011;36811;49.732;13.402;2022-09-30T17:56:10;22.23;;;10.15;;
49039;SDS011;36811;49.732;13.402;2022-09-30T17:58:41;23.20;;;10.88;;
49039;SDS011;36811;49.732;13.402;2022-09-30T18:01:11;18.83;;;11.10;;
49039;SDS011;36811;49.732;13.402;2022-09-30T18:03:38;19.55;;;11.45;;
49039;SDS011;36811;49.732;13.402;2022-09-30T18:06:04;21.00;;;13.13;;
49039;SDS011;36811;49.732;13.402;2022-09-30T18:08:31;22.83;;;13.98;;
49039;SDS011;36811;49.732;13.402;2022-09-30T18:10:59;22.88;;;15.02;;